sensor_id;sensor_type;location;lat;lon;timestamp;P1;P2;P0
51052;PMS5003;37093;37.716;-122.060;2023-02-28T00:01:22;10;1;
51052;PMS5003;37093;37.716;-122.060;2023-02-28T00:03:51;3;2;
51052;PMS5003;37093;37.716;-122.060;2023-02-28T00:06:19;3;1;
51052;PMS5003;37093;37.716;-122.060;2023-02-28T00:08:48;3;2;
51052;PMS5003;37093;37.716;-122.060;2023-02-28T00:11:17;2;2;
51052;PMS5003;37093;37.716;-122.060;2023-02-28T00:13:46;10;4;
51052;PMS5003;37093;37.716;-122.060;2023-02-28T00:16:16;7;2;
51052;PMS5003;37093;37.716;-122.060;2023-02-28T00:18:46;4;2;
51052;PMS5003;37093;37.716;-122.060;2023-02-28T00:21:15;10;4;
51052;PMS5003;37093;37.716;-122.060;2023-02-28T00:23:46;4;2;
51052;PMS5003;37093;37.716;-122.060;2023-02-28T00:26:14;5;2;
51052;PMS5003;37093;37.716;-122.060;2023-02-28T00:28:43;1;1;
51052;PMS5003;37093;37.716;-122.060;2023-02-28T00:31:12;2;2;
51052;PMS5003;37093;37.716;-122.060;2023-02-28T00:33:41;5;1;
51052;PMS5003;37093;37.716;-122.060;2023-02-28T00:36:10;2;2;
51052;PMS5003;37093;37.716;-122.060;2023-02-28T00:38:38;9;3;
51052;PMS5003;37093;37.716;-122.060;2023-02-28T00:41:08;3;3;
51052;PMS5003;37093;37.716;-122.060;2023-02-28T00:43:37;5;5;
51052;PMS5003;37093;37.716;-122.060;2023-02-28T00:46:06;7;2;
51052;PMS5003;37093;37.716;-122.060;2023-02-28T00:48:35;17;1;
51052;PMS5003;37093;37.716;-122.060;2023-02-28T00:51:04;7;5;
51052;PMS5003;37093;37.716;-122.060;2023-02-28T00:53:32;3;3;
51052;PMS5003;37093;37.716;-122.060;2023-02-28T00:56:01;7;4;
51052;PMS5003;37093;37.716;-122.060;2023-02-28T00:58:30;6;3;
51052;PMS5003;37093;37.716;-122.060;2023-02-28T01:00:58;4;1;
51052;PMS5003;37093;37.716;-122.060;2023-02-28T01:03:27;5;3;
51052;PMS5003;37093;37.716;-122.060;2023-02-28T01:05:55;3;2;
51052;PMS5003;37093;37.716;-122.060;2023-02-28T01:08:24;4;3;
51052;PMS5003;37093;37.716;-122.060;2023-02-28T01:10:53;4;2;
51052;PMS5003;37093;37.716;-122.060;2023-02-28T01:13:21;5;3;
51052;PMS5003;37093;37.716;-122.060;2023-02-28T01:15:50;2;1;
51052;PMS5003;37093;37.716;-122.060;2023-02-28T01:18:21;2;2;
51052;PMS5003;37093;37.716;-122.060;2023-02-28T01:20:50;3;1;
51052;PMS5003;37093;37.716;-122.060;2023-02-28T01:23:18;4;1;
51052;PMS5003;37093;37.716;-122.060;2023-02-28T01:25:48;5;1;
51052;PMS5003;37093;37.716;-122.060;2023-02-28T01:28:16;8;2;
51052;PMS5003;37093;37.716;-122.060;2023-02-28T01:30:47;4;2;
51052;PMS5003;37093;37.716;-122.060;2023-02-28T01:33:16;9;3;
51052;PMS5003;37093;37.716;-122.060;2023-02-28T01:35:46;5;2;
51052;PMS5003;37093;37.716;-122.060;2023-02-28T01:38:14;6;4;
51052;PMS5003;37093;37.716;-122.060;2023-02-28T01:40:42;6;3;
51052;PMS5003;37093;37.716;-122.060;2023-02-28T01:43:12;6;2;
51052;PMS5003;37093;37.716;-122.060;2023-02-28T01:45:48;8;2;
51052;PMS5003;37093;37.716;-122.060;2023-02-28T01:48:18;7;1;
51052;PMS5003;37093;37.716;-122.060;2023-02-28T01:50:50;5;4;
51052;PMS5003;37093;37.716;-122.060;2023-02-28T01:53:21;3;3;
51052;PMS5003;37093;37.716;-122.060;2023-02-28T01:55:54;6;3;
51052;PMS5003;37093;37.716;-122.060;2023-02-28T01:58:23;5;2;
51052;PMS5003;37093;37.716;-122.060;2023-02-28T02:00:51;4;2;
51052;PMS5003;37093;37.716;-122.060;2023-02-28T02:03:20;3;2;
51052;PMS5003;37093;37.716;-122.060;2023-02-28T02:05:49;5;3;
51052;PMS5003;37093;37.716;-122.060;2023-02-28T02:08:17;2;2;
51052;PMS5003;37093;37.716;-122.060;2023-02-28T02:10:50;9;5;
51052;PMS5003;37093;37.716;-122.060;2023-02-28T02:13:25;6;4;
51052;PMS5003;37093;37.716;-122.060;2023-02-28T02:16:08;17;5;
51052;PMS5003;37093;37.716;-122.060;2023-02-28T02:18:50;6;5;
51052;PMS5003;37093;37.716;-122.060;2023-02-28T02:21:31;8;6;
51052;PMS5003;37093;37.716;-122.060;2023-02-28T02:25:26;4;2;
51052;PMS5003;37093;37.716;-122.060;2023-02-28T02:28:07;6;2;
51052;PMS5003;37093;37.716;-122.060;2023-02-28T02:30:58;7;4;
51052;PMS5003;37093;37.716;-122.060;2023-02-28T02:36:34;4;1;
51052;PMS5003;37093;37.716;-122.060;2023-02-28T02:39:06;2;2;
51052;PMS5003;37093;37.716;-122.060;2023-02-28T02:41:43;4;2;
51052;PMS5003;37093;37.716;-122.060;2023-02-28T02:44:18;4;2;
51052;PMS5003;37093;37.716;-122.060;2023-02-28T02:46:52;7;3;
51052;PMS5003;37093;37.716;-122.060;2023-02-28T02:49:26;3;2;
51052;PMS5003;37093;37.716;-122.060;2023-02-28T02:52:00;2;1;
51052;PMS5003;37093;37.716;-122.060;2023-02-28T02:54:33;4;2;
51052;PMS5003;37093;37.716;-122.060;2023-02-28T02:57:05;6;2;
51052;PMS5003;37093;37.716;-122.060;2023-02-28T02:59:38;3;3;
51052;PMS5003;37093;37.716;-122.060;2023-02-28T03:02:09;3;1;
51052;PMS5003;37093;37.716;-122.060;2023-02-28T03:04:42;5;4;
51052;PMS5003;37093;37.716;-122.060;2023-02-28T03:07:14;4;2;
51052;PMS5003;37093;37.716;-122.060;2023-02-28T03:09:49;4;4;
51052;PMS5003;37093;37.716;-122.060;2023-02-28T03:12:18;6;5;
51052;PMS5003;37093;37.716;-122.060;2023-02-28T03:14:53;6;5;
51052;PMS5003;37093;37.716;-122.060;2023-02-28T03:17:33;6;3;
51052;PMS5003;37093;37.716;-122.060;2023-02-28T03:20:17;3;3;
51052;PMS5003;37093;37.716;-122.060;2023-02-28T03:22:57;1;1;
51052;PMS5003;37093;37.716;-122.060;2023-02-28T03:25:36;3;3;
51052;PMS5003;37093;37.716;-122.060;2023-02-28T03:28:12;5;3;
51052;PMS5003;37093;37.716;-122.060;2023-02-28T03:30:47;2;2;
51052;PMS5003;37093;37.716;-122.060;2023-02-28T03:33:20;3;2;
51052;PMS5003;37093;37.716;-122.060;2023-02-28T03:35:54;4;4;
51052;PMS5003;37093;37.716;-122.060;2023-02-28T03:38:26;6;4;
51052;PMS5003;37093;37.716;-122.060;2023-02-28T03:41:00;9;6;
51052;PMS5003;37093;37.716;-122.060;2023-02-28T03:43:33;7;7;
51052;PMS5003;37093;37.716;-122.060;2023-02-28T03:46:06;6;5;
51052;PMS5003;37093;37.716;-122.060;2023-02-28T03:48:39;5;3;
51052;PMS5003;37093;37.716;-122.060;2023-02-28T03:51:12;5;4;
51052;PMS5003;37093;37.716;-122.060;2023-02-28T03:53:47;6;5;
51052;PMS5003;37093;37.716;-122.060;2023-02-28T03:56:22;6;4;
51052;PMS5003;37093;37.716;-122.060;2023-02-28T03:58:58;6;3;
51052;PMS5003;37093;37.716;-122.060;2023-02-28T04:01:35;4;4;
51052;PMS5003;37093;37.716;-122.060;2023-02-28T04:04:06;7;3;
51052;PMS5003;37093;37.716;-122.060;2023-02-28T04:06:35;6;6;
51052;PMS5003;37093;37.716;-122.060;2023-02-28T04:09:05;6;5;
51052;PMS5003;37093;37.716;-122.060;2023-02-28T04:11:35;8;4;
51052;PMS5003;37093;37.716;-122.060;2023-02-28T04:14:05;5;3;
51052;PMS5003;37093;37.716;-122.060;2023-02-28T04:16:36;7;4;
51052;PMS5003;37093;37.716;-122.060;2023-02-28T04:19:07;13;8;
51052;PMS5003;37093;37.716;-122.060;2023-02-28T04:21:38;5;5;
51052;PMS5003;37093;37.716;-122.060;2023-02-28T04:24:09;20;6;
51052;PMS5003;37093;37.716;-122.060;2023-02-28T04:26:39;7;7;
51052;PMS5003;37093;37.716;-122.060;2023-02-28T04:29:09;12;8;
51052;PMS5003;37093;37.716;-122.060;2023-02-28T04:31:38;8;8;
51052;PMS5003;37093;37.716;-122.060;2023-02-28T04:34:07;18;9;
51052;PMS5003;37093;37.716;-122.060;2023-02-28T04:36:35;12;6;
51052;PMS5003;37093;37.716;-122.060;2023-02-28T04:39:04;12;9;
51052;PMS5003;37093;37.716;-122.060;2023-02-28T04:41:33;13;7;
51052;PMS5003;37093;37.716;-122.060;2023-02-28T04:44:01;13;8;
51052;PMS5003;37093;37.716;-122.060;2023-02-28T04:46:30;11;10;
51052;PMS5003;37093;37.716;-122.060;2023-02-28T04:48:58;24;17;
51052;PMS5003;37093;37.716;-122.060;2023-02-28T04:51:27;13;10;
51052;PMS5003;37093;37.716;-122.060;2023-02-28T04:53:56;12;8;
51052;PMS5003;37093;37.716;-122.060;2023-02-28T04:56:24;10;6;
51052;PMS5003;37093;37.716;-122.060;2023-02-28T04:58:53;10;7;
51052;PMS5003;37093;37.716;-122.060;2023-02-28T05:01:22;8;6;
51052;PMS5003;37093;37.716;-122.060;2023-02-28T05:03:53;8;7;
51052;PMS5003;37093;37.716;-122.060;2023-02-28T05:06:23;10;8;
51052;PMS5003;37093;37.716;-122.060;2023-02-28T05:08:53;13;8;
51052;PMS5003;37093;37.716;-122.060;2023-02-28T05:11:23;10;6;
51052;PMS5003;37093;37.716;-122.060;2023-02-28T05:13:53;8;6;
51052;PMS5003;37093;37.716;-122.060;2023-02-28T05:16:21;6;4;
51052;PMS5003;37093;37.716;-122.060;2023-02-28T05:18:50;9;6;
51052;PMS5003;37093;37.716;-122.060;2023-02-28T05:21:23;6;4;
51052;PMS5003;37093;37.716;-122.060;2023-02-28T05:23:55;4;3;
51052;PMS5003;37093;37.716;-122.060;2023-02-28T05:26:24;8;4;
51052;PMS5003;37093;37.716;-122.060;2023-02-28T05:28:53;2;2;
51052;PMS5003;37093;37.716;-122.060;2023-02-28T05:31:22;7;5;
51052;PMS5003;37093;37.716;-122.060;2023-02-28T05:33:51;6;3;
51052;PMS5003;37093;37.716;-122.060;2023-02-28T05:36:19;5;3;
51052;PMS5003;37093;37.716;-122.060;2023-02-28T05:38:48;6;4;
51052;PMS5003;37093;37.716;-122.060;2023-02-28T05:41:18;4;4;
51052;PMS5003;37093;37.716;-122.060;2023-02-28T05:43:47;9;4;
51052;PMS5003;37093;37.716;-122.060;2023-02-28T05:46:16;4;4;
51052;PMS5003;37093;37.716;-122.060;2023-02-28T05:48:46;4;3;
51052;PMS5003;37093;37.716;-122.060;2023-02-28T05:51:15;5;3;
51052;PMS5003;37093;37.716;-122.060;2023-02-28T05:53:44;11;5;
51052;PMS5003;37093;37.716;-122.060;2023-02-28T05:56:12;5;4;
51052;PMS5003;37093;37.716;-122.060;2023-02-28T05:58:40;5;3;
51052;PMS5003;37093;37.716;-122.060;2023-02-28T06:01:31;4;4;
51052;PMS5003;37093;37.716;-122.060;2023-02-28T06:04:01;2;2;
51052;PMS5003;37093;37.716;-122.060;2023-02-28T06:06:31;2;2;
51052;PMS5003;37093;37.716;-122.060;2023-02-28T06:09:00;4;2;
51052;PMS5003;37093;37.716;-122.060;2023-02-28T06:11:29;2;2;
51052;PMS5003;37093;37.716;-122.060;2023-02-28T06:13:57;5;1;
51052;PMS5003;37093;37.716;-122.060;2023-02-28T06:16:27;4;2;
51052;PMS5003;37093;37.716;-122.060;2023-02-28T06:18:57;4;2;
51052;PMS5003;37093;37.716;-122.060;2023-02-28T06:21:29;4;3;
51052;PMS5003;37093;37.716;-122.060;2023-02-28T06:23:58;5;4;
51052;PMS5003;37093;37.716;-122.060;2023-02-28T06:26:27;22;6;
51052;PMS5003;37093;37.716;-122.060;2023-02-28T06:28:57;3;3;
51052;PMS5003;37093;37.716;-122.060;2023-02-28T06:31:25;7;5;
51052;PMS5003;37093;37.716;-122.060;2023-02-28T06:33:54;5;3;
51052;PMS5003;37093;37.716;-122.060;2023-02-28T06:36:22;8;4;
51052;PMS5003;37093;37.716;-122.060;2023-02-28T06:38:51;9;5;
51052;PMS5003;37093;37.716;-122.060;2023-02-28T06:41:21;4;3;
51052;PMS5003;37093;37.716;-122.060;2023-02-28T06:43:50;5;4;
51052;PMS5003;37093;37.716;-122.060;2023-02-28T06:46:19;6;2;
51052;PMS5003;37093;37.716;-122.060;2023-02-28T06:48:48;5;2;
51052;PMS5003;37093;37.716;-122.060;2023-02-28T06:51:17;3;1;
51052;PMS5003;37093;37.716;-122.060;2023-02-28T06:53:46;3;2;
51052;PMS5003;37093;37.716;-122.060;2023-02-28T06:56:15;5;2;
51052;PMS5003;37093;37.716;-122.060;2023-02-28T06:58:46;3;1;
51052;PMS5003;37093;37.716;-122.060;2023-02-28T07:01:15;4;3;
51052;PMS5003;37093;37.716;-122.060;2023-02-28T07:03:44;2;0;
51052;PMS5003;37093;37.716;-122.060;2023-02-28T07:06:14;2;1;
51052;PMS5003;37093;37.716;-122.060;2023-02-28T07:08:42;4;2;
51052;PMS5003;37093;37.716;-122.060;2023-02-28T07:11:11;3;3;
51052;PMS5003;37093;37.716;-122.060;2023-02-28T07:13:40;4;2;
51052;PMS5003;37093;37.716;-122.060;2023-02-28T07:16:09;3;2;
51052;PMS5003;37093;37.716;-122.060;2023-02-28T07:18:38;5;3;
51052;PMS5003;37093;37.716;-122.060;2023-02-28T07:21:07;2;2;
51052;PMS5003;37093;37.716;-122.060;2023-02-28T07:23:37;5;3;
51052;PMS5003;37093;37.716;-122.060;2023-02-28T07:26:06;4;2;
51052;PMS5003;37093;37.716;-122.060;2023-02-28T07:28:37;5;3;
51052;PMS5003;37093;37.716;-122.060;2023-02-28T07:31:06;3;3;
51052;PMS5003;37093;37.716;-122.060;2023-02-28T07:33:36;14;2;
51052;PMS5003;37093;37.716;-122.060;2023-02-28T07:36:05;8;3;
51052;PMS5003;37093;37.716;-122.060;2023-02-28T07:38:36;4;3;
51052;PMS5003;37093;37.716;-122.060;2023-02-28T07:41:04;2;1;
51052;PMS5003;37093;37.716;-122.060;2023-02-28T07:43:34;3;2;
51052;PMS5003;37093;37.716;-122.060;2023-02-28T07:46:03;5;4;
51052;PMS5003;37093;37.716;-122.060;2023-02-28T07:48:33;5;2;
51052;PMS5003;37093;37.716;-122.060;2023-02-28T07:51:01;2;2;
51052;PMS5003;37093;37.716;-122.060;2023-02-28T07:53:30;9;3;
51052;PMS5003;37093;37.716;-122.060;2023-02-28T07:55:59;6;3;
51052;PMS5003;37093;37.716;-122.060;2023-02-28T07:58:29;8;6;
51052;PMS5003;37093;37.716;-122.060;2023-02-28T08:01:13;14;6;
51052;PMS5003;37093;37.716;-122.060;2023-02-28T08:03:42;6;4;
51052;PMS5003;37093;37.716;-122.060;2023-02-28T08:06:15;8;6;
51052;PMS5003;37093;37.716;-122.060;2023-02-28T08:08:45;5;4;
51052;PMS5003;37093;37.716;-122.060;2023-02-28T08:11:14;6;3;
51052;PMS5003;37093;37.716;-122.060;2023-02-28T08:13:44;7;5;
51052;PMS5003;37093;37.716;-122.060;2023-02-28T08:16:13;4;4;
51052;PMS5003;37093;37.716;-122.060;2023-02-28T08:18:42;4;4;
51052;PMS5003;37093;37.716;-122.060;2023-02-28T08:21:10;7;6;
51052;PMS5003;37093;37.716;-122.060;2023-02-28T08:23:39;1;1;
51052;PMS5003;37093;37.716;-122.060;2023-02-28T08:26:08;4;1;
51052;PMS5003;37093;37.716;-122.060;2023-02-28T08:28:36;4;2;
51052;PMS5003;37093;37.716;-122.060;2023-02-28T08:31:08;1;0;
51052;PMS5003;37093;37.716;-122.060;2023-02-28T08:33:37;3;0;
51052;PMS5003;37093;37.716;-122.060;2023-02-28T08:36:06;4;2;
51052;PMS5003;37093;37.716;-122.060;2023-02-28T08:38:35;2;1;
51052;PMS5003;37093;37.716;-122.060;2023-02-28T08:41:05;4;1;
51052;PMS5003;37093;37.716;-122.060;2023-02-28T08:43:37;3;2;
51052;PMS5003;37093;37.716;-122.060;2023-02-28T08:46:06;1;1;
51052;PMS5003;37093;37.716;-122.060;2023-02-28T08:48:38;2;1;
51052;PMS5003;37093;37.716;-122.060;2023-02-28T08:51:07;2;1;
51052;PMS5003;37093;37.716;-122.060;2023-02-28T08:53:37;8;2;
51052;PMS5003;37093;37.716;-122.060;2023-02-28T08:56:07;4;1;
51052;PMS5003;37093;37.716;-122.060;2023-02-28T08:58:36;3;1;
51052;PMS5003;37093;37.716;-122.060;2023-02-28T09:01:08;3;0;
51052;PMS5003;37093;37.716;-122.060;2023-02-28T09:03:38;3;1;
51052;PMS5003;37093;37.716;-122.060;2023-02-28T09:06:07;3;2;
51052;PMS5003;37093;37.716;-122.060;2023-02-28T09:08:36;4;2;
51052;PMS5003;37093;37.716;-122.060;2023-02-28T09:11:05;3;2;
51052;PMS5003;37093;37.716;-122.060;2023-02-28T09:13:33;1;1;
51052;PMS5003;37093;37.716;-122.060;2023-02-28T09:16:03;1;1;
51052;PMS5003;37093;37.716;-122.060;2023-02-28T09:18:34;1;1;
51052;PMS5003;37093;37.716;-122.060;2023-02-28T09:21:03;3;1;
51052;PMS5003;37093;37.716;-122.060;2023-02-28T09:23:32;2;2;
51052;PMS5003;37093;37.716;-122.060;2023-02-28T09:26:01;0;0;
51052;PMS5003;37093;37.716;-122.060;2023-02-28T09:28:31;3;2;
51052;PMS5003;37093;37.716;-122.060;2023-02-28T09:30:59;2;0;
51052;PMS5003;37093;37.716;-122.060;2023-02-28T09:33:27;6;2;
51052;PMS5003;37093;37.716;-122.060;2023-02-28T09:35:58;3;0;
51052;PMS5003;37093;37.716;-122.060;2023-02-28T09:38:27;1;1;
51052;PMS5003;37093;37.716;-122.060;2023-02-28T09:40:57;3;1;
51052;PMS5003;37093;37.716;-122.060;2023-02-28T09:43:28;1;1;
51052;PMS5003;37093;37.716;-122.060;2023-02-28T09:46:02;1;1;
51052;PMS5003;37093;37.716;-122.060;2023-02-28T09:48:36;1;1;
51052;PMS5003;37093;37.716;-122.060;2023-02-28T09:51:12;3;3;
51052;PMS5003;37093;37.716;-122.060;2023-02-28T09:53:53;1;1;
51052;PMS5003;37093;37.716;-122.060;2023-02-28T09:56:22;1;1;
51052;PMS5003;37093;37.716;-122.060;2023-02-28T09:58:57;3;3;
51052;PMS5003;37093;37.716;-122.060;2023-02-28T10:01:30;2;1;
51052;PMS5003;37093;37.716;-122.060;2023-02-28T10:04:05;3;1;
51052;PMS5003;37093;37.716;-122.060;2023-02-28T10:06:41;1;1;
51052;PMS5003;37093;37.716;-122.060;2023-02-28T10:09:17;3;1;
51052;PMS5003;37093;37.716;-122.060;2023-02-28T10:11:47;4;1;
51052;PMS5003;37093;37.716;-122.060;2023-02-28T10:14:21;5;2;
51052;PMS5003;37093;37.716;-122.060;2023-02-28T10:16:52;3;1;
51052;PMS5003;37093;37.716;-122.060;2023-02-28T10:19:26;3;2;
51052;PMS5003;37093;37.716;-122.060;2023-02-28T10:22:00;6;0;
51052;PMS5003;37093;37.716;-122.060;2023-02-28T10:24:33;2;2;
51052;PMS5003;37093;37.716;-122.060;2023-02-28T10:27:12;2;1;
51052;PMS5003;37093;37.716;-122.060;2023-02-28T10:29:43;2;1;
51052;PMS5003;37093;37.716;-122.060;2023-02-28T10:32:14;0;0;
51052;PMS5003;37093;37.716;-122.060;2023-02-28T10:34:44;4;3;
51052;PMS5003;37093;37.716;-122.060;2023-02-28T10:37:17;1;1;
51052;PMS5003;37093;37.716;-122.060;2023-02-28T10:39:48;2;2;
51052;PMS5003;37093;37.716;-122.060;2023-02-28T10:42:21;4;2;
51052;PMS5003;37093;37.716;-122.060;2023-02-28T10:45:04;2;2;
51052;PMS5003;37093;37.716;-122.060;2023-02-28T10:47:40;2;1;
51052;PMS5003;37093;37.716;-122.060;2023-02-28T10:50:35;1;1;
51052;PMS5003;37093;37.716;-122.060;2023-02-28T10:53:15;3;2;
51052;PMS5003;37093;37.716;-122.060;2023-02-28T10:55:56;1;1;
51052;PMS5003;37093;37.716;-122.060;2023-02-28T10:58:27;1;1;
51052;PMS5003;37093;37.716;-122.060;2023-02-28T11:00:58;2;1;
51052;PMS5003;37093;37.716;-122.060;2023-02-28T11:03:31;1;1;
51052;PMS5003;37093;37.716;-122.060;2023-02-28T11:06:05;4;2;
51052;PMS5003;37093;37.716;-122.060;2023-02-28T11:08:44;3;1;
51052;PMS5003;37093;37.716;-122.060;2023-02-28T11:11:13;1;1;
51052;PMS5003;37093;37.716;-122.060;2023-02-28T11:13:43;2;1;
51052;PMS5003;37093;37.716;-122.060;2023-02-28T11:16:13;4;1;
51052;PMS5003;37093;37.716;-122.060;2023-02-28T11:18:46;1;1;
51052;PMS5003;37093;37.716;-122.060;2023-02-28T11:21:19;3;3;
51052;PMS5003;37093;37.716;-122.060;2023-02-28T11:23:54;3;2;
51052;PMS5003;37093;37.716;-122.060;2023-02-28T11:26:37;1;0;
51052;PMS5003;37093;37.716;-122.060;2023-02-28T11:29:12;0;0;
51052;PMS5003;37093;37.716;-122.060;2023-02-28T11:32:19;2;1;
51052;PMS5003;37093;37.716;-122.060;2023-02-28T11:35:01;4;2;
51052;PMS5003;37093;37.716;-122.060;2023-02-28T11:37:41;2;1;
51052;PMS5003;37093;37.716;-122.060;2023-02-28T11:40:12;2;2;
51052;PMS5003;37093;37.716;-122.060;2023-02-28T11:42:45;3;0;
51052;PMS5003;37093;37.716;-122.060;2023-02-28T11:45:31;2;0;
51052;PMS5003;37093;37.716;-122.060;2023-02-28T11:48:16;1;1;
51052;PMS5003;37093;37.716;-122.060;2023-02-28T11:50:53;2;1;
51052;PMS5003;37093;37.716;-122.060;2023-02-28T11:53:35;3;2;
51052;PMS5003;37093;37.716;-122.060;2023-02-28T11:56:17;4;1;
51052;PMS5003;37093;37.716;-122.060;2023-02-28T11:58:53;5;3;
51052;PMS5003;37093;37.716;-122.060;2023-02-28T12:01:40;1;1;
51052;PMS5003;37093;37.716;-122.060;2023-02-28T12:04:25;5;1;
51052;PMS5003;37093;37.716;-122.060;2023-02-28T12:07:02;4;1;
51052;PMS5003;37093;37.716;-122.060;2023-02-28T12:09:42;2;2;
51052;PMS5003;37093;37.716;-122.060;2023-02-28T12:12:22;0;0;
51052;PMS5003;37093;37.716;-122.060;2023-02-28T12:15:05;1;1;
51052;PMS5003;37093;37.716;-122.060;2023-02-28T12:17:53;3;1;
51052;PMS5003;37093;37.716;-122.060;2023-02-28T12:20:32;3;2;
51052;PMS5003;37093;37.716;-122.060;2023-02-28T12:23:10;1;1;
51052;PMS5003;37093;37.716;-122.060;2023-02-28T12:26:10;10;3;
51052;PMS5003;37093;37.716;-122.060;2023-02-28T12:28:47;2;1;
51052;PMS5003;37093;37.716;-122.060;2023-02-28T12:31:20;2;1;
51052;PMS5003;37093;37.716;-122.060;2023-02-28T12:33:52;6;0;
51052;PMS5003;37093;37.716;-122.060;2023-02-28T12:36:23;1;1;
51052;PMS5003;37093;37.716;-122.060;2023-02-28T12:38:53;3;2;
51052;PMS5003;37093;37.716;-122.060;2023-02-28T12:41:29;1;1;
51052;PMS5003;37093;37.716;-122.060;2023-02-28T12:44:06;4;2;
51052;PMS5003;37093;37.716;-122.060;2023-02-28T12:46:41;5;2;
51052;PMS5003;37093;37.716;-122.060;2023-02-28T12:49:14;4;1;
51052;PMS5003;37093;37.716;-122.060;2023-02-28T12:51:46;3;2;
51052;PMS5003;37093;37.716;-122.060;2023-02-28T12:54:18;4;1;
51052;PMS5003;37093;37.716;-122.060;2023-02-28T12:56:54;6;2;
51052;PMS5003;37093;37.716;-122.060;2023-02-28T12:59:31;2;1;
51052;PMS5003;37093;37.716;-122.060;2023-02-28T13:02:14;5;1;
51052;PMS5003;37093;37.716;-122.060;2023-02-28T13:05:08;2;1;
51052;PMS5003;37093;37.716;-122.060;2023-02-28T13:07:57;2;2;
51052;PMS5003;37093;37.716;-122.060;2023-02-28T13:10:39;2;0;
51052;PMS5003;37093;37.716;-122.060;2023-02-28T13:13:13;2;1;
51052;PMS5003;37093;37.716;-122.060;2023-02-28T13:16:03;3;2;
51052;PMS5003;37093;37.716;-122.060;2023-02-28T13:18:35;4;1;
51052;PMS5003;37093;37.716;-122.060;2023-02-28T13:21:06;2;2;
51052;PMS5003;37093;37.716;-122.060;2023-02-28T13:23:39;2;2;
51052;PMS5003;37093;37.716;-122.060;2023-02-28T13:26:23;1;1;
51052;PMS5003;37093;37.716;-122.060;2023-02-28T13:29:47;1;1;
51052;PMS5003;37093;37.716;-122.060;2023-02-28T13:32:20;4;1;
51052;PMS5003;37093;37.716;-122.060;2023-02-28T13:35:36;2;1;
51052;PMS5003;37093;37.716;-122.060;2023-02-28T13:38:16;3;3;
51052;PMS5003;37093;37.716;-122.060;2023-02-28T13:40:50;3;2;
51052;PMS5003;37093;37.716;-122.060;2023-02-28T13:43:18;2;2;
51052;PMS5003;37093;37.716;-122.060;2023-02-28T13:46:10;3;1;
51052;PMS5003;37093;37.716;-122.060;2023-02-28T13:48:40;3;2;
51052;PMS5003;37093;37.716;-122.060;2023-02-28T13:51:37;1;1;
51052;PMS5003;37093;37.716;-122.060;2023-02-28T13:54:15;1;1;
51052;PMS5003;37093;37.716;-122.060;2023-02-28T13:56:55;6;2;
51052;PMS5003;37093;37.716;-122.060;2023-02-28T13:59:37;3;1;
51052;PMS5003;37093;37.716;-122.060;2023-02-28T14:02:23;1;1;
51052;PMS5003;37093;37.716;-122.060;2023-02-28T14:05:12;2;2;
51052;PMS5003;37093;37.716;-122.060;2023-02-28T14:07:43;2;1;
51052;PMS5003;37093;37.716;-122.060;2023-02-28T14:10:22;2;2;
51052;PMS5003;37093;37.716;-122.060;2023-02-28T14:12:57;2;1;
51052;PMS5003;37093;37.716;-122.060;2023-02-28T14:15:34;2;2;
51052;PMS5003;37093;37.716;-122.060;2023-02-28T14:18:23;1;1;
51052;PMS5003;37093;37.716;-122.060;2023-02-28T14:20:58;1;1;
51052;PMS5003;37093;37.716;-122.060;2023-02-28T14:23:56;4;2;
51052;PMS5003;37093;37.716;-122.060;2023-02-28T14:26:46;5;2;
51052;PMS5003;37093;37.716;-122.060;2023-02-28T14:29:34;3;1;
51052;PMS5003;37093;37.716;-122.060;2023-02-28T14:32:21;2;1;
51052;PMS5003;37093;37.716;-122.060;2023-02-28T14:35:00;1;1;
51052;PMS5003;37093;37.716;-122.060;2023-02-28T14:37:41;3;1;
51052;PMS5003;37093;37.716;-122.060;2023-02-28T14:40:12;3;1;
51052;PMS5003;37093;37.716;-122.060;2023-02-28T14:42:47;2;1;
51052;PMS5003;37093;37.716;-122.060;2023-02-28T14:45:22;2;2;
51052;PMS5003;37093;37.716;-122.060;2023-02-28T14:47:50;4;2;
51052;PMS5003;37093;37.716;-122.060;2023-02-28T14:50:20;1;1;
51052;PMS5003;37093;37.716;-122.060;2023-02-28T14:52:52;2;2;
51052;PMS5003;37093;37.716;-122.060;2023-02-28T14:55:23;2;1;
51052;PMS5003;37093;37.716;-122.060;2023-02-28T14:57:54;1;1;
51052;PMS5003;37093;37.716;-122.060;2023-02-28T15:00:24;4;1;
51052;PMS5003;37093;37.716;-122.060;2023-02-28T15:02:55;1;1;
51052;PMS5003;37093;37.716;-122.060;2023-02-28T15:05:26;1;1;
51052;PMS5003;37093;37.716;-122.060;2023-02-28T15:08:05;1;1;
51052;PMS5003;37093;37.716;-122.060;2023-02-28T15:10:38;3;1;
51052;PMS5003;37093;37.716;-122.060;2023-02-28T15:13:11;8;2;
51052;PMS5003;37093;37.716;-122.060;2023-02-28T15:15:42;1;0;
51052;PMS5003;37093;37.716;-122.060;2023-02-28T15:18:20;3;2;
51052;PMS5003;37093;37.716;-122.060;2023-02-28T15:20:53;2;1;
51052;PMS5003;37093;37.716;-122.060;2023-02-28T15:23:24;4;1;
51052;PMS5003;37093;37.716;-122.060;2023-02-28T15:25:53;1;1;
51052;PMS5003;37093;37.716;-122.060;2023-02-28T15:28:22;1;1;
51052;PMS5003;37093;37.716;-122.060;2023-02-28T15:30:52;0;0;
51052;PMS5003;37093;37.716;-122.060;2023-02-28T15:33:24;2;1;
51052;PMS5003;37093;37.716;-122.060;2023-02-28T15:36:03;3;1;
51052;PMS5003;37093;37.716;-122.060;2023-02-28T15:38:38;1;1;
51052;PMS5003;37093;37.716;-122.060;2023-02-28T15:41:21;1;1;
51052;PMS5003;37093;37.716;-122.060;2023-02-28T15:44:14;1;1;
51052;PMS5003;37093;37.716;-122.060;2023-02-28T15:46:55;0;0;
51052;PMS5003;37093;37.716;-122.060;2023-02-28T15:49:27;1;1;
51052;PMS5003;37093;37.716;-122.060;2023-02-28T15:52:03;2;0;
51052;PMS5003;37093;37.716;-122.060;2023-02-28T15:54:34;1;1;
51052;PMS5003;37093;37.716;-122.060;2023-02-28T15:57:04;3;1;
51052;PMS5003;37093;37.716;-122.060;2023-02-28T15:59:34;1;1;
51052;PMS5003;37093;37.716;-122.060;2023-02-28T16:02:13;1;1;
51052;PMS5003;37093;37.716;-122.060;2023-02-28T16:05:00;1;1;
51052;PMS5003;37093;37.716;-122.060;2023-02-28T16:07:44;2;1;
51052;PMS5003;37093;37.716;-122.060;2023-02-28T16:10:13;4;1;
51052;PMS5003;37093;37.716;-122.060;2023-02-28T16:12:42;2;2;
51052;PMS5003;37093;37.716;-122.060;2023-02-28T16:15:17;3;1;
51052;PMS5003;37093;37.716;-122.060;2023-02-28T16:17:47;1;1;
51052;PMS5003;37093;37.716;-122.060;2023-02-28T16:20:17;1;1;
51052;PMS5003;37093;37.716;-122.060;2023-02-28T16:22:48;1;1;
51052;PMS5003;37093;37.716;-122.060;2023-02-28T16:25:17;2;1;
51052;PMS5003;37093;37.716;-122.060;2023-02-28T16:27:49;2;1;
51052;PMS5003;37093;37.716;-122.060;2023-02-28T16:30:20;2;1;
51052;PMS5003;37093;37.716;-122.060;2023-02-28T16:32:50;1;1;
51052;PMS5003;37093;37.716;-122.060;2023-02-28T16:35:20;4;2;
51052;PMS5003;37093;37.716;-122.060;2023-02-28T16:37:50;1;1;
51052;PMS5003;37093;37.716;-122.060;2023-02-28T16:40:21;1;1;
51052;PMS5003;37093;37.716;-122.060;2023-02-28T16:42:51;5;1;
51052;PMS5003;37093;37.716;-122.060;2023-02-28T16:45:23;0;0;